»·PEaware :: N5533 KGEG-KGEG

N5533 :: KGEG-KGEG

FLIGHT INFORMATION

Flight Status: Arrived
Operator: Privately registered:
United States
More flights under this callsign
Pilot: Jack C. (13477)
Aircraft: CESSNA 208 CARAVAN
(C208)
More flights by this aircraft type
Origin: KGEG Spokane Intl
United States
Destination: KGEG Spokane Intl
United States
More flights between these airports :: More routes between these airports
Route: +
File this flight plan on PilotEdge
Remarks:
Altitude:
(Current/Filed)
0ft
Speed:
(Current/Filed)
0kts
Departed: 26-Mar-17 05:55 PM
Arrived: 26-Mar-17 06:40 PM
Distance/Time
Traveled:
0nm/0:45
Distance/Time
To Go:
Arrived

Flight Plot

Page will automatically refresh every two minutes.


Map Options




Map Legend


Flown Route
Filed Route
Departure Airport
Arrival Airport
Navaid (VOR, NDB)
Fix

Horizontal Profiles

Position Reports

Time Latitude Longitude Heading Altitude Ground
Speed
26-Mar-17 17:49 47.614751 -117.530540 312 2380ft 0kts
26-Mar-17 17:50 47.614751 -117.530540 312 2380ft 0kts
26-Mar-17 17:51 47.614751 -117.530540 312 2380ft 0kts
26-Mar-17 17:52 47.614751 -117.530540 312 2380ft 0kts
26-Mar-17 17:53 47.615203 -117.527648 91 2380ft 24kts
26-Mar-17 17:54 47.615186 -117.521566 87 2380ft 18kts
26-Mar-17 17:55 47.615840 -117.520279 0 2380ft 2kts
26-Mar-17 17:56 47.616882 -117.531579 268 2489ft 90kts
26-Mar-17 17:57 47.615381 -117.560939 231 3345ft 96kts
26-Mar-17 17:58 47.597714 -117.568335 189 4362ft 86kts
26-Mar-17 17:59 47.577842 -117.571600 189 4903ft 115kts
26-Mar-17 18:00 47.553457 -117.575770 189 5413ft 127kts
26-Mar-17 18:01 47.532224 -117.553232 129 5495ft 158kts
26-Mar-17 18:02 47.512945 -117.517190 134 5495ft 165kts
26-Mar-17 18:03 47.493448 -117.483433 135 5496ft 166kts
26-Mar-17 18:04 47.473557 -117.449377 135 5498ft 167kts
26-Mar-17 18:05 47.453964 -117.415728 135 5499ft 167kts
26-Mar-17 18:06 47.436998 -117.386672 135 5503ft 167kts
26-Mar-17 18:07 47.421397 -117.359996 135 5504ft 167kts
26-Mar-17 18:08 47.404858 -117.331706 135 5504ft 167kts
26-Mar-17 18:09 47.391739 -117.309345 135 5504ft 167kts
26-Mar-17 18:10 47.377300 -117.284717 135 5504ft 167kts
26-Mar-17 18:11 47.358716 -117.253036 135 5504ft 168kts
26-Mar-17 18:12 47.337959 -117.217725 135 5506ft 169kts
26-Mar-17 18:13 47.316595 -117.186428 151 5510ft 166kts
26-Mar-17 18:14 47.292767 -117.164212 152 5464ft 172kts
26-Mar-17 18:15 47.264519 -117.138739 152 5071ft 184kts
26-Mar-17 18:16 47.231914 -117.107639 146 4639ft 184kts
26-Mar-17 18:17 47.207377 -117.071686 70 4083ft 125kts
26-Mar-17 18:18 47.219517 -117.038087 52 3667ft 90kts
26-Mar-17 18:19 47.235063 -117.019459 318 3208ft 80kts
26-Mar-17 18:20 47.237390 -117.039141 243 2547ft 84kts
26-Mar-17 18:21 47.232636 -117.065427 276 3134ft 100kts
26-Mar-17 18:22 47.235729 -117.101261 306 3865ft 118kts
26-Mar-17 18:23 47.249731 -117.119830 318 4459ft 122kts
26-Mar-17 18:24 47.271303 -117.145167 318 4516ft 154kts
26-Mar-17 18:25 47.294331 -117.171692 318 4511ft 163kts
26-Mar-17 18:26 47.319609 -117.200305 318 4508ft 168kts
26-Mar-17 18:27 47.346595 -117.230697 318 4517ft 170kts
26-Mar-17 18:28 47.372231 -117.259577 318 4523ft 172kts
26-Mar-17 18:29 47.398501 -117.289130 319 4523ft 173kts
26-Mar-17 18:30 47.423572 -117.317562 318 4523ft 172kts
26-Mar-17 18:31 47.449851 -117.347477 319 4524ft 172kts
26-Mar-17 18:32 47.472867 -117.373732 319 4524ft 172kts
26-Mar-17 18:33 47.500110 -117.405213 319 4522ft 172kts
26-Mar-17 18:34 47.527028 -117.437008 319 4519ft 172kts
26-Mar-17 18:35 47.551482 -117.466774 319 4515ft 172kts
26-Mar-17 18:36 47.572914 -117.491774 328 4342ft 134kts
26-Mar-17 18:37 47.593813 -117.510225 327 3611ft 128kts
26-Mar-17 18:38 47.616307 -117.506648 51 3069ft 126kts
26-Mar-17 18:39 47.631954 -117.488217 342 2803ft 93kts
26-Mar-17 18:40 47.636380 -117.508937 242 2597ft 78kts
26-Mar-17 18:41 47.627316 -117.523874 193 2380ft 20kts
26-Mar-17 18:42 47.624160 -117.524455 204 2380ft 24kts
26-Mar-17 18:43 47.620841 -117.524314 94 2380ft 0kts

Navigation Log

Ident Type
Flight plan parsing failed, navigation log unavailable